createdAt,value
2023-02-24T20:11:35.458Z,4.60
2023-02-24T20:14:07.264Z,5.30
2023-02-24T20:16:42.588Z,4.70
2023-02-24T20:19:13.463Z,4.20
2023-02-24T20:21:46.976Z,5.50
2023-02-24T20:24:18.267Z,4.30
2023-02-24T20:26:51.271Z,4.70
2023-02-24T20:29:23.100Z,4.80
2023-02-24T20:31:58.746Z,4.60
2023-02-24T20:34:28.759Z,4.60
2023-02-24T20:36:59.136Z,4.00
2023-02-24T20:39:29.027Z,4.60
2023-02-24T20:41:59.415Z,5.10
2023-02-24T20:44:29.695Z,5.70
2023-02-24T20:47:01.057Z,5.70
2023-02-24T20:49:31.150Z,5.00
2023-02-24T20:52:00.904Z,5.50
2023-02-24T20:54:30.422Z,5.90
2023-02-24T20:57:00.455Z,5.80
2023-02-24T20:59:30.178Z,5.90
2023-02-24T21:02:00.551Z,5.50
2023-02-24T21:04:30.430Z,6.10
2023-02-24T21:07:01.059Z,5.80
2023-02-24T21:09:30.441Z,6.00
2023-02-24T21:12:00.143Z,6.20
2023-02-24T21:14:29.376Z,6.50
2023-02-24T21:16:58.819Z,6.50
2023-02-24T21:19:28.133Z,6.60
2023-02-24T21:21:57.391Z,6.00
2023-02-24T21:24:26.220Z,6.30
2023-02-24T21:26:55.314Z,7.10
2023-02-24T21:29:25.874Z,6.30
2023-02-24T21:31:56.417Z,6.10
2023-02-24T21:34:25.211Z,5.70
2023-02-24T21:36:55.119Z,5.30
2023-02-24T21:39:24.540Z,5.50
2023-02-24T21:41:53.659Z,6.10
2023-02-24T21:44:22.158Z,6.50
2023-02-24T21:46:52.958Z,5.50
2023-02-24T21:49:24.000Z,5.40
2023-02-24T21:51:55.522Z,5.10
2023-02-24T21:54:24.710Z,5.20
2023-02-24T21:56:53.719Z,5.70
2023-02-24T21:59:22.724Z,5.90
2023-02-24T22:01:52.421Z,5.30
2023-02-24T22:04:22.133Z,5.20
2023-02-24T22:06:55.132Z,5.40
2023-02-24T22:09:23.897Z,5.10
2023-02-24T22:11:52.389Z,4.80
2023-02-24T22:14:21.689Z,5.50
2023-02-24T22:16:50.184Z,5.70
2023-02-24T22:19:20.123Z,5.60
2023-02-24T22:22:51.742Z,5.80
2023-02-24T22:25:20.350Z,5.30
2023-02-24T22:27:49.343Z,5.30
2023-02-24T22:30:18.104Z,5.60
2023-02-24T22:32:47.149Z,5.10
2023-02-24T22:35:15.755Z,4.90
2023-02-24T22:37:44.133Z,4.40
2023-02-24T22:40:12.715Z,4.40
2023-02-24T22:42:41.172Z,5.00
2023-02-24T22:45:10.147Z,5.10
2023-02-24T22:47:38.630Z,5.10
2023-02-24T22:50:07.927Z,4.90
2023-02-24T22:52:36.486Z,5.10
2023-02-24T22:55:05.150Z,5.10
2023-02-24T22:57:35.196Z,5.50
2023-02-24T23:00:10.039Z,6.20
2023-02-24T23:02:38.452Z,5.60
2023-02-24T23:05:09.119Z,5.10
2023-02-24T23:07:37.768Z,4.90
2023-02-24T23:10:07.134Z,5.20
2023-02-24T23:12:36.032Z,5.20
2023-02-24T23:15:05.025Z,5.70
2023-02-24T23:17:33.419Z,5.30
2023-02-24T23:20:01.818Z,5.40
2023-02-24T23:23:10.969Z,4.70
2023-02-24T23:25:42.444Z,5.90
2023-02-24T23:28:10.870Z,6.40
2023-02-24T23:30:42.114Z,6.10
2023-02-24T23:33:11.430Z,5.70
2023-02-24T23:35:41.060Z,6.80
2023-02-24T23:38:10.799Z,6.20
2023-02-24T23:40:49.577Z,6.60
2023-02-24T23:43:21.298Z,7.20
2023-02-24T23:45:50.299Z,7.10
2023-02-24T23:48:21.061Z,6.60
2023-02-24T23:50:51.387Z,6.70
2023-02-24T23:53:19.877Z,7.40
2023-02-24T23:55:48.374Z,8.50
2023-02-24T23:58:17.663Z,7.40
